PWSweather.com
Personal Weather Stations
Station Observations
KMIEASTT1
Tawas Bay, East Tawas, MI 48730

Tawas BayEast Tawas, MI 48730

Lat: 44.28, Lon: -83.48

Elevation: 600

Station Type: Davis VantagePro

http://www.tawasbayweather.com

High Low Average
Temperature 16.5°F-8.6°C 4.0°F-15.6°C 11.1°F-11.6°C
Dew Point 11.6°F-11.3°C 0.7°F-17.4°C 6.3°F-14.3°C
Winds 17.0 mph 27.4 kmh Calm Calm 7.0 mph SW11.3 kmh SW
Wind Gusts 20.0 mph32.2 kmh -- 10.0 mph16.1 kmh
Humidity 87% 73% 81%
Pressure 30.72 in1040.3 mb 30.57 in1035.2 mb -
Precipitation 0.00 in0.0 mm - -
Hour Temp Dew Point Humidity Winds Wind Gusts Pressure Precip Precip Rate Daily Precip Total
12:00 AM 3.1°F-16.1°C -0.4°F-18.0°C 85% Calm Calm 2.0 mph3.2 kmh 30.65 in1037.9 mb 0.00 in0.0 mm 0.00 in0.0 mm 0.00 in0.0 mm
12:15 AM 3.1°F-16.1°C -0.1°F-17.8°C 86% 2.0 mph NW3.2 kmh NW 3.0 mph4.8 kmh 30.65 in1037.9 mb 0.00 in0.0 mm 0.00 in0.0 mm 0.00 in0.0 mm
12:30 AM 3.4°F-15.9°C 0.2°F-17.7°C 86% 2.0 mph NW3.2 kmh NW 2.0 mph3.2 kmh 30.65 in1037.9 mb 0.00 in0.0 mm 0.00 in0.0 mm 0.00 in0.0 mm
12:45 AM 3.8°F-15.7°C 0.6°F-17.4°C 86% Calm Calm 2.0 mph3.2 kmh 30.65 in1037.9 mb 0.00 in0.0 mm 0.00 in0.0 mm 0.00 in0.0 mm
01:00 AM 4.6°F-15.2°C 1.1°F-17.2°C 85% Calm Calm -- 30.65 in1037.9 mb 0.00 in0.0 mm 0.00 in0.0 mm 0.00 in0.0 mm
01:15 AM 5.0°F-15.0°C 1.2°F-17.1°C 84% 2.0 mph NW3.2 kmh NW 2.0 mph3.2 kmh 30.65 in1037.9 mb 0.00 in0.0 mm 0.00 in0.0 mm 0.00 in0.0 mm
01:30 AM 4.7°F-15.2°C 0.7°F-17.4°C 83% 2.0 mph NW3.2 kmh NW 3.0 mph4.8 kmh 30.65 in1037.9 mb 0.00 in0.0 mm 0.00 in0.0 mm 0.00 in0.0 mm
01:45 AM 4.8°F-15.1°C 1.0°F-17.2°C 84% 2.0 mph NW3.2 kmh NW 2.0 mph3.2 kmh 30.65 in1037.9 mb 0.00 in0.0 mm 0.00 in0.0 mm 0.00 in0.0 mm
02:00 AM 11.8°F-11.2°C 6.0°F-14.4°C 77% 4.0 mph ENE6.4 kmh ENE 5.0 mph8.0 kmh 30.65 in1037.9 mb 0.00 in0.0 mm 0.00 in0.0 mm 0.00 in0.0 mm
02:15 AM 12.4°F-10.9°C 6.3°F-14.3°C 76% 5.0 mph ENE8.0 kmh ENE 8.0 mph12.9 kmh 30.65 in1037.9 mb 0.00 in0.0 mm 0.00 in0.0 mm 0.00 in0.0 mm
02:30 AM 5.4°F-14.8°C 1.6°F-16.9°C 84% 1.0 mph WNW1.6 kmh WNW 4.0 mph6.4 kmh 30.66 in1038.3 mb 0.00 in0.0 mm 0.00 in0.0 mm 0.00 in0.0 mm
02:45 AM 5.5°F-14.7°C 1.5°F-16.9°C 83% 1.0 mph WNW1.6 kmh WNW 4.0 mph6.4 kmh 30.66 in1038.3 mb 0.00 in0.0 mm 0.00 in0.0 mm 0.00 in0.0 mm
03:00 AM 5.4°F-14.8°C 1.4°F-17.0°C 83% 1.0 mph NW1.6 kmh NW 3.0 mph4.8 kmh 30.66 in1038.3 mb 0.00 in0.0 mm 0.00 in0.0 mm 0.00 in0.0 mm
03:15 AM 6.2°F-14.3°C 2.2°F-16.6°C 83% 1.0 mph WNW1.6 kmh WNW 3.0 mph4.8 kmh 30.66 in1038.3 mb 0.00 in0.0 mm 0.00 in0.0 mm 0.00 in0.0 mm
03:30 AM 6.8°F-14.0°C 2.5°F-16.4°C 82% 2.0 mph WNW3.2 kmh WNW 4.0 mph6.4 kmh 30.67 in1038.6 mb 0.00 in0.0 mm 0.00 in0.0 mm 0.00 in0.0 mm
03:45 AM 7.1°F-13.8°C 3.0°F-16.1°C 83% 4.0 mph WSW6.4 kmh WSW 5.0 mph8.0 kmh 30.67 in1038.6 mb 0.00 in0.0 mm 0.00 in0.0 mm 0.00 in0.0 mm
04:00 AM 7.1°F-13.8°C 3.0°F-16.1°C 83% 4.0 mph W6.4 kmh W 4.0 mph6.4 kmh 30.67 in1038.6 mb 0.00 in0.0 mm 0.00 in0.0 mm 0.00 in0.0 mm
04:15 AM 6.7°F-14.1°C 2.6°F-16.3°C 83% 1.0 mph W1.6 kmh W 1.0 mph1.6 kmh 30.68 in1038.9 mb 0.00 in0.0 mm 0.00 in0.0 mm 0.00 in0.0 mm
04:30 AM 5.5°F-14.7°C 1.5°F-16.9°C 83% 1.0 mph W1.6 kmh W 2.0 mph3.2 kmh 30.68 in1038.9 mb 0.00 in0.0 mm 0.00 in0.0 mm 0.00 in0.0 mm
04:45 AM 5.5°F-14.7°C 2.0°F-16.7°C 85% Calm Calm 1.0 mph1.6 kmh 30.68 in1038.9 mb 0.00 in0.0 mm 0.00 in0.0 mm 0.00 in0.0 mm
05:00 AM 5.1°F-14.9°C 1.6°F-16.9°C 85% Calm Calm 1.0 mph1.6 kmh 30.68 in1038.9 mb 0.00 in0.0 mm 0.00 in0.0 mm 0.00 in0.0 mm
05:15 AM 4.6°F-15.2°C 1.1°F-17.2°C 85% 2.0 mph WNW3.2 kmh WNW 3.0 mph4.8 kmh 30.68 in1038.9 mb 0.00 in0.0 mm 0.00 in0.0 mm 0.00 in0.0 mm
05:30 AM 4.7°F-15.2°C 1.7°F-16.8°C 87% 2.0 mph W3.2 kmh W 4.0 mph6.4 kmh 30.68 in1038.9 mb 0.00 in0.0 mm 0.00 in0.0 mm 0.00 in0.0 mm
05:45 AM 5.6°F-14.7°C 2.6°F-16.3°C 87% 1.0 mph WNW1.6 kmh WNW 4.0 mph6.4 kmh 30.68 in1038.9 mb 0.00 in0.0 mm 0.00 in0.0 mm 0.00 in0.0 mm
06:00 AM 6.0°F-14.4°C 3.0°F-16.1°C 87% 2.0 mph WNW3.2 kmh WNW 4.0 mph6.4 kmh 30.68 in1038.9 mb 0.00 in0.0 mm 0.00 in0.0 mm 0.00 in0.0 mm
06:15 AM 5.3°F-14.8°C 1.8°F-16.8°C 85% Calm Calm 2.0 mph3.2 kmh 30.68 in1038.9 mb 0.00 in0.0 mm 0.00 in0.0 mm 0.00 in0.0 mm
06:30 AM 4.6°F-15.2°C 1.6°F-16.9°C 87% 1.0 mph NW1.6 kmh NW 2.0 mph3.2 kmh 30.67 in1038.6 mb 0.00 in0.0 mm 0.00 in0.0 mm 0.00 in0.0 mm
06:45 AM 6.2°F-14.3°C 3.2°F-16.0°C 87% 4.0 mph WSW6.4 kmh WSW 6.0 mph9.7 kmh 30.66 in1038.3 mb 0.00 in0.0 mm 0.00 in0.0 mm 0.00 in0.0 mm
07:00 AM 6.5°F-14.2°C 3.0°F-16.1°C 85% 2.0 mph WNW3.2 kmh WNW 6.0 mph9.7 kmh 30.66 in1038.3 mb 0.00 in0.0 mm 0.00 in0.0 mm 0.00 in0.0 mm
07:15 AM 6.0°F-14.4°C 2.5°F-16.4°C 85% 4.0 mph NW6.4 kmh NW 7.0 mph11.3 kmh 30.66 in1038.3 mb 0.00 in0.0 mm 0.00 in0.0 mm 0.00 in0.0 mm
07:30 AM 5.8°F-14.6°C 2.3°F-16.5°C 85% 3.0 mph WNW4.8 kmh WNW 6.0 mph9.7 kmh 30.66 in1038.3 mb 0.00 in0.0 mm 0.00 in0.0 mm 0.00 in0.0 mm
07:45 AM 5.4°F-14.8°C 1.9°F-16.7°C 85% 4.0 mph WNW6.4 kmh WNW 6.0 mph9.7 kmh 30.67 in1038.6 mb 0.00 in0.0 mm 0.00 in0.0 mm 0.00 in0.0 mm
08:00 AM 5.3°F-14.8°C 1.8°F-16.8°C 85% 3.0 mph WNW4.8 kmh WNW 6.0 mph9.7 kmh 30.67 in1038.6 mb 0.00 in0.0 mm 0.00 in0.0 mm 0.00 in0.0 mm
08:15 AM 5.0°F-15.0°C 1.5°F-16.9°C 85% 2.0 mph WNW3.2 kmh WNW 6.0 mph9.7 kmh 30.67 in1038.6 mb 0.00 in0.0 mm 0.00 in0.0 mm 0.00 in0.0 mm
08:30 AM 4.6°F-15.2°C 1.1°F-17.2°C 85% 3.0 mph WNW4.8 kmh WNW 5.0 mph8.0 kmh 30.67 in1038.6 mb 0.00 in0.0 mm 0.00 in0.0 mm 0.00 in0.0 mm
08:45 AM 4.5°F-15.3°C 1.3°F-17.1°C 86% 1.0 mph W1.6 kmh W 2.0 mph3.2 kmh 30.67 in1038.6 mb 0.00 in0.0 mm 0.00 in0.0 mm 0.00 in0.0 mm
09:00 AM 4.1°F-15.5°C 0.9°F-17.3°C 86% Calm Calm 4.0 mph6.4 kmh 30.67 in1038.6 mb 0.00 in0.0 mm 0.00 in0.0 mm 0.00 in0.0 mm
09:15 AM 4.0°F-15.6°C 0.8°F-17.3°C 86% Calm Calm 1.0 mph1.6 kmh 30.68 in1038.9 mb 0.00 in0.0 mm 0.00 in0.0 mm 0.00 in0.0 mm
09:30 AM 4.4°F-15.3°C 1.2°F-17.1°C 86% 1.0 mph NW1.6 kmh NW 3.0 mph4.8 kmh 30.68 in1038.9 mb 0.00 in0.0 mm 0.00 in0.0 mm 0.00 in0.0 mm
09:45 AM 6.3°F-14.3°C 3.3°F-15.9°C 87% Calm Calm -- 30.69 in1039.3 mb 0.00 in0.0 mm 0.00 in0.0 mm 0.00 in0.0 mm
10:00 AM 7.1°F-13.8°C 3.3°F-15.9°C 84% 2.0 mph WNW3.2 kmh WNW 2.0 mph3.2 kmh 30.69 in1039.3 mb 0.00 in0.0 mm 0.00 in0.0 mm 0.00 in0.0 mm
10:15 AM 5.9°F-14.5°C 2.1°F-16.6°C 84% 2.0 mph WNW3.2 kmh WNW 3.0 mph4.8 kmh 30.70 in1039.6 mb 0.00 in0.0 mm 0.00 in0.0 mm 0.00 in0.0 mm
10:30 AM 6.0°F-14.4°C 2.5°F-16.4°C 85% 2.0 mph WNW3.2 kmh WNW 3.0 mph4.8 kmh 30.70 in1039.6 mb 0.00 in0.0 mm 0.00 in0.0 mm 0.00 in0.0 mm
10:45 AM 6.8°F-14.0°C 3.3°F-15.9°C 85% 2.0 mph W3.2 kmh W 3.0 mph4.8 kmh 30.70 in1039.6 mb 0.00 in0.0 mm 0.00 in0.0 mm 0.00 in0.0 mm
11:00 AM 8.4°F-13.1°C 4.8°F-15.1°C 85% 3.0 mph WSW4.8 kmh WSW 4.0 mph6.4 kmh 30.70 in1039.6 mb 0.00 in0.0 mm 0.00 in0.0 mm 0.00 in0.0 mm
11:15 AM 9.6°F-12.4°C 5.5°F-14.7°C 83% 3.0 mph WSW4.8 kmh WSW 4.0 mph6.4 kmh 30.71 in1040.0 mb 0.00 in0.0 mm 0.00 in0.0 mm 0.00 in0.0 mm
11:30 AM 11.0°F-11.7°C 6.9°F-13.9°C 83% 4.0 mph WSW6.4 kmh WSW 6.0 mph9.7 kmh 30.71 in1040.0 mb 0.00 in0.0 mm 0.00 in0.0 mm 0.00 in0.0 mm
11:45 AM 12.5°F-10.8°C 8.1°F-13.3°C 82% 8.0 mph SW12.9 kmh SW 11.0 mph17.7 kmh 30.72 in1040.3 mb 0.00 in0.0 mm 0.00 in0.0 mm 0.00 in0.0 mm
12:00 PM 12.8°F-10.7°C 8.4°F-13.1°C 82% 7.0 mph SW11.3 kmh SW 11.0 mph17.7 kmh 30.71 in1040.0 mb 0.00 in0.0 mm 0.00 in0.0 mm 0.00 in0.0 mm
12:15 PM 13.2°F-10.4°C 8.5°F-13.1°C 81% 11.0 mph SW17.7 kmh SW 12.0 mph19.3 kmh 30.71 in1040.0 mb 0.00 in0.0 mm 0.00 in0.0 mm 0.00 in0.0 mm
12:30 PM 13.5°F-10.3°C 8.5°F-13.1°C 80% 9.0 mph SW14.5 kmh SW 11.0 mph17.7 kmh 30.70 in1039.6 mb 0.00 in0.0 mm 0.00 in0.0 mm 0.00 in0.0 mm
12:45 PM 13.8°F-10.1°C 9.1°F-12.7°C 81% 7.0 mph SW11.3 kmh SW 12.0 mph19.3 kmh 30.70 in1039.6 mb 0.00 in0.0 mm 0.00 in0.0 mm 0.00 in0.0 mm
01:00 PM 13.9°F-10.1°C 9.2°F-12.7°C 81% 9.0 mph SSW14.5 kmh SSW 14.0 mph22.5 kmh 30.69 in1039.3 mb 0.00 in0.0 mm 0.00 in0.0 mm 0.00 in0.0 mm
01:15 PM 14.1°F-9.9°C 9.4°F-12.6°C 81% 7.0 mph SSW11.3 kmh SSW 11.0 mph17.7 kmh 30.69 in1039.3 mb 0.00 in0.0 mm 0.00 in0.0 mm 0.00 in0.0 mm
01:30 PM 14.3°F-9.8°C 9.0°F-12.8°C 79% 8.0 mph S12.9 kmh S 13.0 mph20.9 kmh 30.68 in1038.9 mb 0.00 in0.0 mm 0.00 in0.0 mm 0.00 in0.0 mm
01:45 PM 14.5°F-9.7°C 9.2°F-12.7°C 79% 11.0 mph SSW17.7 kmh SSW 12.0 mph19.3 kmh 30.67 in1038.6 mb 0.00 in0.0 mm 0.00 in0.0 mm 0.00 in0.0 mm
02:00 PM 14.6°F-9.7°C 9.0°F-12.8°C 78% 8.0 mph S12.9 kmh S 14.0 mph22.5 kmh 30.67 in1038.6 mb 0.00 in0.0 mm 0.00 in0.0 mm 0.00 in0.0 mm
02:15 PM 14.8°F-9.6°C 9.2°F-12.7°C 78% 10.0 mph S16.1 kmh S 15.0 mph24.1 kmh 30.66 in1038.3 mb 0.00 in0.0 mm 0.00 in0.0 mm 0.00 in0.0 mm
02:30 PM 14.8°F-9.6°C 8.9°F-12.8°C 77% 11.0 mph S17.7 kmh S 13.0 mph20.9 kmh 30.66 in1038.3 mb 0.00 in0.0 mm 0.00 in0.0 mm 0.00 in0.0 mm
02:45 PM 15.0°F-9.4°C 8.8°F-12.9°C 76% 9.0 mph SSW14.5 kmh SSW 13.0 mph20.9 kmh 30.65 in1037.9 mb 0.00 in0.0 mm 0.00 in0.0 mm 0.00 in0.0 mm
03:00 PM 15.0°F-9.4°C 8.8°F-12.9°C 76% 8.0 mph SSW12.9 kmh SSW 14.0 mph22.5 kmh 30.64 in1037.6 mb 0.00 in0.0 mm 0.00 in0.0 mm 0.00 in0.0 mm
03:15 PM 15.0°F-9.4°C 8.8°F-12.9°C 76% 9.0 mph S14.5 kmh S 13.0 mph20.9 kmh 30.64 in1037.6 mb 0.00 in0.0 mm 0.00 in0.0 mm 0.00 in0.0 mm
03:30 PM 15.2°F-9.3°C 9.0°F-12.8°C 76% 10.0 mph SSE16.1 kmh SSE 14.0 mph22.5 kmh 30.63 in1037.3 mb 0.00 in0.0 mm 0.00 in0.0 mm 0.00 in0.0 mm
03:45 PM 14.8°F-9.6°C 9.5°F-12.5°C 79% 13.0 mph S20.9 kmh S 15.0 mph24.1 kmh 30.63 in1037.3 mb 0.00 in0.0 mm 0.00 in0.0 mm 0.00 in0.0 mm
04:00 PM 14.9°F-9.5°C 8.7°F-12.9°C 76% 10.0 mph SSE16.1 kmh SSE 13.0 mph20.9 kmh 30.62 in1036.9 mb 0.00 in0.0 mm 0.00 in0.0 mm 0.00 in0.0 mm
04:15 PM 14.9°F-9.5°C 8.1°F-13.3°C 74% 11.0 mph S17.7 kmh S 12.0 mph19.3 kmh 30.62 in1036.9 mb 0.00 in0.0 mm 0.00 in0.0 mm 0.00 in0.0 mm
04:30 PM 14.6°F-9.7°C 7.5°F-13.6°C 73% 11.0 mph S17.7 kmh S 13.0 mph20.9 kmh 30.62 in1036.9 mb 0.00 in0.0 mm 0.00 in0.0 mm 0.00 in0.0 mm
04:45 PM 14.3°F-9.8°C 7.8°F-13.4°C 75% 12.0 mph S19.3 kmh S 15.0 mph24.1 kmh 30.62 in1036.9 mb 0.00 in0.0 mm 0.00 in0.0 mm 0.00 in0.0 mm
05:00 PM 14.0°F-10.0°C 7.8°F-13.4°C 76% 9.0 mph S14.5 kmh S 15.0 mph24.1 kmh 30.61 in1036.6 mb 0.00 in0.0 mm 0.00 in0.0 mm 0.00 in0.0 mm
05:15 PM 14.3°F-9.8°C 8.4°F-13.1°C 77% 12.0 mph S19.3 kmh S 15.0 mph24.1 kmh 30.61 in1036.6 mb 0.00 in0.0 mm 0.00 in0.0 mm 0.00 in0.0 mm
05:30 PM 14.6°F-9.7°C 9.0°F-12.8°C 78% 10.0 mph S16.1 kmh S 15.0 mph24.1 kmh 30.60 in1036.2 mb 0.00 in0.0 mm 0.00 in0.0 mm 0.00 in0.0 mm
05:45 PM 14.9°F-9.5°C 9.0°F-12.8°C 77% 8.0 mph SSW12.9 kmh SSW 16.0 mph25.7 kmh 30.60 in1036.2 mb 0.00 in0.0 mm 0.00 in0.0 mm 0.00 in0.0 mm
06:00 PM 14.8°F-9.6°C 8.9°F-12.8°C 77% 12.0 mph S19.3 kmh S 17.0 mph27.4 kmh 30.60 in1036.2 mb 0.00 in0.0 mm 0.00 in0.0 mm 0.00 in0.0 mm
06:15 PM 14.9°F-9.5°C 9.3°F-12.6°C 78% 9.0 mph SSE14.5 kmh SSE 17.0 mph27.4 kmh 30.60 in1036.2 mb 0.00 in0.0 mm 0.00 in0.0 mm 0.00 in0.0 mm
06:30 PM 14.7°F-9.6°C 8.8°F-12.9°C 77% 13.0 mph S20.9 kmh S 16.0 mph25.7 kmh 30.60 in1036.2 mb 0.00 in0.0 mm 0.00 in0.0 mm 0.00 in0.0 mm
06:45 PM 14.8°F-9.6°C 8.6°F-13.0°C 76% 15.0 mph S24.1 kmh S 19.0 mph30.6 kmh 30.60 in1036.2 mb 0.00 in0.0 mm 0.00 in0.0 mm 0.00 in0.0 mm
07:00 PM 14.8°F-9.6°C 8.9°F-12.8°C 77% 16.0 mph S25.7 kmh S 17.0 mph27.4 kmh 30.60 in1036.2 mb 0.00 in0.0 mm 0.00 in0.0 mm 0.00 in0.0 mm
07:15 PM 15.0°F-9.4°C 8.8°F-12.9°C 76% 13.0 mph S20.9 kmh S 18.0 mph29.0 kmh 30.60 in1036.2 mb 0.00 in0.0 mm 0.00 in0.0 mm 0.00 in0.0 mm
07:30 PM 14.9°F-9.5°C 9.0°F-12.8°C 77% 12.0 mph S19.3 kmh S 14.0 mph22.5 kmh 30.60 in1036.2 mb 0.00 in0.0 mm 0.00 in0.0 mm 0.00 in0.0 mm
07:45 PM 15.0°F-9.4°C 9.1°F-12.7°C 77% 16.0 mph S25.7 kmh S 16.0 mph25.7 kmh 30.60 in1036.2 mb 0.00 in0.0 mm 0.00 in0.0 mm 0.00 in0.0 mm
08:00 PM 15.3°F-9.3°C 9.7°F-12.4°C 78% 13.0 mph S20.9 kmh S 16.0 mph25.7 kmh 30.61 in1036.6 mb 0.00 in0.0 mm 0.00 in0.0 mm 0.00 in0.0 mm
08:15 PM 15.1°F-9.4°C 9.2°F-12.7°C 77% 11.0 mph SSE17.7 kmh SSE 15.0 mph24.1 kmh 30.61 in1036.6 mb 0.00 in0.0 mm 0.00 in0.0 mm 0.00 in0.0 mm
08:30 PM 15.3°F-9.3°C 9.4°F-12.6°C 77% 12.0 mph S19.3 kmh S 17.0 mph27.4 kmh 30.61 in1036.6 mb 0.00 in0.0 mm 0.00 in0.0 mm 0.00 in0.0 mm
08:45 PM 15.5°F-9.2°C 9.9°F-12.3°C 78% 9.0 mph SSE14.5 kmh SSE 17.0 mph27.4 kmh 30.60 in1036.2 mb 0.00 in0.0 mm 0.00 in0.0 mm 0.00 in0.0 mm
09:00 PM 15.9°F-8.9°C 10.0°F-12.2°C 77% 15.0 mph SSE24.1 kmh SSE 18.0 mph29.0 kmh 30.60 in1036.2 mb 0.00 in0.0 mm 0.00 in0.0 mm 0.00 in0.0 mm
09:15 PM 15.7°F-9.1°C 9.8°F-12.3°C 77% 11.0 mph SSE17.7 kmh SSE 18.0 mph29.0 kmh 30.60 in1036.2 mb 0.00 in0.0 mm 0.00 in0.0 mm 0.00 in0.0 mm
09:30 PM 16.1°F-8.8°C 10.2°F-12.1°C 77% 12.0 mph SSE19.3 kmh SSE 19.0 mph30.6 kmh 30.59 in1035.9 mb 0.00 in0.0 mm 0.00 in0.0 mm 0.00 in0.0 mm
09:45 PM 16.3°F-8.7°C 10.9°F-11.7°C 79% 14.0 mph SSE22.5 kmh SSE 14.0 mph22.5 kmh 30.59 in1035.9 mb 0.00 in0.0 mm 0.00 in0.0 mm 0.00 in0.0 mm
10:00 PM 16.3°F-8.7°C 10.7°F-11.8°C 78% 13.0 mph SSE20.9 kmh SSE 20.0 mph32.2 kmh 30.59 in1035.9 mb 0.00 in0.0 mm 0.00 in0.0 mm 0.00 in0.0 mm
10:15 PM 16.5°F-8.6°C 10.6°F-11.9°C 77% 17.0 mph S27.4 kmh S 18.0 mph29.0 kmh 30.59 in1035.9 mb 0.00 in0.0 mm 0.00 in0.0 mm 0.00 in0.0 mm
10:30 PM 16.5°F-8.6°C 11.1°F-11.6°C 79% 9.0 mph S14.5 kmh S 17.0 mph27.4 kmh 30.59 in1035.9 mb 0.00 in0.0 mm 0.00 in0.0 mm 0.00 in0.0 mm
10:45 PM 16.4°F-8.7°C 11.0°F-11.7°C 79% 12.0 mph SSE19.3 kmh SSE 16.0 mph25.7 kmh 30.58 in1035.6 mb 0.00 in0.0 mm 0.00 in0.0 mm 0.00 in0.0 mm
11:00 PM 16.2°F-8.8°C 10.8°F-11.8°C 79% 12.0 mph SSE19.3 kmh SSE 17.0 mph27.4 kmh 30.58 in1035.6 mb 0.00 in0.0 mm 0.00 in0.0 mm 0.00 in0.0 mm
11:15 PM 16.2°F-8.8°C 10.8°F-11.8°C 79% 13.0 mph S20.9 kmh S 16.0 mph25.7 kmh 30.58 in1035.6 mb 0.00 in0.0 mm 0.00 in0.0 mm 0.00 in0.0 mm
11:30 PM 16.3°F-8.7°C 10.7°F-11.8°C 78% 12.0 mph SSE19.3 kmh SSE 18.0 mph29.0 kmh 30.58 in1035.6 mb 0.00 in0.0 mm 0.00 in0.0 mm 0.00 in0.0 mm
11:45 PM 16.4°F-8.7°C 11.3°F-11.5°C 80% 12.0 mph SE19.3 kmh SE 17.0 mph27.4 kmh 30.58 in1035.6 mb 0.00 in0.0 mm 0.00 in0.0 mm 0.00 in0.0 mm